Time;durP1;ratioP1;P1;durP2;ratioP2;P2;SDS_P1;SDS_P2;PMS_P1;PMS_P2;Temp;Humidity;BMP_temperature;BMP_pressure;BME280_temperature;BME280_humidity;BME280_pressure;Samples;Min_cycle;Max_cycle;Signal;HPM_P1;HPM_P2
2022/12/04 00:01:28;;;;;;;59.00;25.17;;;;;;;;;;5008498;28;20443;-58
2022/12/04 00:03:56;;;;;;;55.40;23.40;;;;;;;;;;5011923;28;20064;-58
2022/12/04 00:06:22;;;;;;;45.53;20.30;;;;;;;;;;4987075;28;20050;-58
2022/12/04 00:08:49;;;;;;;56.80;25.27;;;;;;;;;;4995621;28;20482;-58
2022/12/04 00:11:16;;;;;;;56.10;23.33;;;;;;;;;;4998883;28;20038;-58
2022/12/04 00:13:43;;;;;;;52.92;22.65;;;;;;;;;;5000136;28;20412;-60
2022/12/04 00:16:11;;;;;;;53.58;21.63;;;;;;;;;;5002159;28;20437;-58
2022/12/04 00:18:37;;;;;;;53.90;22.85;;;;;;;;;;4998913;28;20038;-58
2022/12/04 00:21:04;;;;;;;52.75;21.85;;;;;;;;;;5007481;28;20041;-58
2022/12/04 00:23:30;;;;;;;51.30;23.77;;;;;;;;;;5010503;28;20049;-58
2022/12/04 00:26:03;;;;;;;51.95;22.30;;;;;;;;;;4991548;28;20089;-58
2022/12/04 00:28:29;;;;;;;56.35;22.00;;;;;;;;;;4993287;28;20042;-58
2022/12/04 00:30:56;;;;;;;55.95;22.88;;;;;;;;;;4979519;28;20038;-57
2022/12/04 00:33:22;;;;;;;48.35;20.88;;;;;;;;;;5011386;28;20522;-58
2022/12/04 00:35:48;;;;;;;52.83;22.52;;;;;;;;;;5008545;28;20046;-59
2022/12/04 00:38:14;;;;;;;49.47;22.38;;;;;;;;;;4991940;28;20041;-58
2022/12/04 00:40:47;;;;;;;53.20;23.90;;;;;;;;;;5021332;28;20041;-58
2022/12/04 00:43:13;;;;;;;48.38;22.77;;;;;;;;;;4990372;28;20042;-58
2022/12/04 00:45:39;;;;;;;55.40;23.10;;;;;;;;;;5003451;28;20096;-61
2022/12/04 00:48:05;;;;;;;50.88;22.45;;;;;;;;;;5011279;28;20092;-57
2022/12/04 00:50:31;;;;;;;49.05;21.55;;;;;;;;;;5002843;28;20061;-58
2022/12/04 00:52:57;;;;;;;48.78;22.15;;;;;;;;;;5008889;28;20433;-57
2022/12/04 00:55:23;;;;;;;51.55;21.13;;;;;;;;;;5004625;28;20501;-59
2022/12/04 00:57:49;;;;;;;50.05;22.13;;;;;;;;;;5009708;28;20494;-58
2022/12/04 01:00:15;;;;;;;51.38;21.73;;;;;;;;;;5010805;28;20038;-58
2022/12/04 01:02:41;;;;;;;46.10;18.40;;;;;;;;;;5010347;28;20045;-58
2022/12/04 01:05:08;;;;;;;54.38;23.73;;;;;;;;;;5024169;28;20113;-58
2022/12/04 01:07:34;;;;;;;52.28;22.02;;;;;;;;;;5021164;28;20046;-57
2022/12/04 01:10:00;;;;;;;49.75;21.02;;;;;;;;;;5024083;28;20045;-58
2022/12/04 01:12:26;;;;;;;58.85;21.27;;;;;;;;;;5002538;28;20042;-58
2022/12/04 01:14:52;;;;;;;47.85;21.98;;;;;;;;;;5024683;28;20139;-58
2022/12/04 01:17:18;;;;;;;52.40;22.75;;;;;;;;;;5014499;28;20042;-58
2022/12/04 01:19:44;;;;;;;54.05;22.20;;;;;;;;;;5014360;28;20038;-57
2022/12/04 01:22:10;;;;;;;51.65;22.20;;;;;;;;;;5013828;28;20053;-57
2022/12/04 01:24:36;;;;;;;53.60;22.48;;;;;;;;;;5016834;28;21030;-57
2022/12/04 01:27:02;;;;;;;55.65;21.67;;;;;;;;;;5013241;28;20083;-58
2022/12/04 01:29:28;;;;;;;57.03;24.33;;;;;;;;;;5014387;28;20041;-57
2022/12/04 01:31:54;;;;;;;51.75;20.90;;;;;;;;;;4996590;28;20037;-57
2022/12/04 01:34:20;;;;;;;47.45;21.05;;;;;;;;;;5022152;28;20089;-57
2022/12/04 01:36:47;;;;;;;53.05;20.63;;;;;;;;;;5020277;28;20042;-57
2022/12/04 01:39:13;;;;;;;59.08;24.33;;;;;;;;;;5013233;28;20050;-57
2022/12/04 01:41:39;;;;;;;54.08;22.27;;;;;;;;;;5013752;28;20046;-60
2022/12/04 01:44:09;;;;;;;50.97;21.80;;;;;;;;;;5016556;28;20048;-57
2022/12/04 01:46:35;;;;;;;53.33;22.42;;;;;;;;;;5016292;28;20042;-58
2022/12/04 01:49:02;;;;;;;51.67;21.58;;;;;;;;;;5013579;28;20085;-58
2022/12/04 01:51:30;;;;;;;53.90;23.55;;;;;;;;;;5020497;28;20497;-58
2022/12/04 01:54:00;;;;;;;54.50;22.73;;;;;;;;;;5015302;28;20052;-58
2022/12/04 01:56:30;;;;;;;54.80;22.17;;;;;;;;;;4996806;28;20887;-58
2022/12/04 01:58:58;;;;;;;54.60;22.50;;;;;;;;;;5016587;28;20124;-58
2022/12/04 02:01:25;;;;;;;52.83;22.83;;;;;;;;;;5017015;28;20336;-58
2022/12/04 02:03:51;;;;;;;51.10;21.25;;;;;;;;;;5015701;28;20045;-58
2022/12/04 02:06:17;;;;;;;49.67;22.02;;;;;;;;;;5020952;28;20095;-58
2022/12/04 02:08:43;;;;;;;53.08;22.85;;;;;;;;;;4985411;28;20439;-58
2022/12/04 02:11:16;;;;;;;51.97;23.25;;;;;;;;;;5013874;28;20034;-58
2022/12/04 02:13:48;;;;;;;53.92;23.13;;;;;;;;;;5013243;28;20641;-57
2022/12/04 02:16:37;;;;;;;52.35;21.05;;;;;;;;;;5013473;28;20042;-58
2022/12/04 02:19:16;;;;;;;56.65;21.30;;;;;;;;;;5013416;28;20125;-58
2022/12/04 02:21:43;;;;;;;55.15;23.88;;;;;;;;;;5018102;28;20042;-60
2022/12/04 02:24:09;;;;;;;52.90;24.58;;;;;;;;;;5013013;28;20475;-58
2022/12/04 02:26:53;;;;;;;48.25;20.98;;;;;;;;;;5015208;28;20041;-58
2022/12/04 02:29:19;;;;;;;53.22;22.77;;;;;;;;;;5017935;28;20367;-57
2022/12/04 02:31:49;;;;;;;52.00;22.65;;;;;;;;;;5015452;28;20390;-58
2022/12/04 02:34:18;;;;;;;56.10;23.92;;;;;;;;;;5013641;28;20125;-57
2022/12/04 02:36:48;;;;;;;50.60;23.27;;;;;;;;;;5013643;28;20136;-59
2022/12/04 02:39:18;;;;;;;44.53;18.20;;;;;;;;;;4999659;28;20057;-57
2022/12/04 02:41:48;;;;;;;51.90;20.23;;;;;;;;;;5021507;28;20076;-57
2022/12/04 02:44:27;;;;;;;48.83;21.98;;;;;;;;;;5013785;28;20050;-57
2022/12/04 02:46:58;;;;;;;48.03;20.17;;;;;;;;;;5011149;28;20046;-58
2022/12/04 02:49:27;;;;;;;55.92;24.23;;;;;;;;;;5023482;28;20129;-57
2022/12/04 02:51:55;;;;;;;55.90;23.42;;;;;;;;;;4997120;28;20037;-57
2022/12/04 02:54:27;;;;;;;60.17;25.42;;;;;;;;;;5014272;28;20046;-58
2022/12/04 02:56:53;;;;;;;54.60;23.42;;;;;;;;;;5012799;28;20045;-57
2022/12/04 02:59:24;;;;;;;52.65;20.95;;;;;;;;;;5016330;28;20478;-58
2022/12/04 03:01:53;;;;;;;58.85;25.23;;;;;;;;;;5019365;28;20221;-59
2022/12/04 03:04:20;;;;;;;54.17;23.23;;;;;;;;;;5015569;28;20496;-57
2022/12/04 03:06:52;;;;;;;65.22;25.75;;;;;;;;;;5018005;28;20050;-58
2022/12/04 03:09:26;;;;;;;57.85;25.33;;;;;;;;;;5021277;28;20049;-58
2022/12/04 03:11:54;;;;;;;53.17;24.52;;;;;;;;;;4993741;28;20429;-58
2022/12/04 03:14:33;;;;;;;59.75;25.08;;;;;;;;;;5008006;28;20481;-58
2022/12/04 03:17:08;;;;;;;58.47;26.83;;;;;;;;;;5012337;28;20046;-58
2022/12/04 03:19:38;;;;;;;57.20;24.85;;;;;;;;;;5016734;28;20061;-57
2022/12/04 03:22:07;;;;;;;55.35;23.63;;;;;;;;;;4988892;28;20148;-58
2022/12/04 03:24:35;;;;;;;59.08;22.85;;;;;;;;;;5015760;28;20116;-58
2022/12/04 03:27:10;;;;;;;54.75;24.52;;;;;;;;;;5019084;28;20029;-57
2022/12/04 03:29:42;;;;;;;55.42;23.73;;;;;;;;;;5016161;28;20113;-57
2022/12/04 03:32:11;;;;;;;56.67;24.27;;;;;;;;;;4996054;28;20529;-58
2022/12/04 03:34:51;;;;;;;57.90;25.67;;;;;;;;;;5003553;28;20045;-57
2022/12/04 03:37:19;;;;;;;59.33;23.58;;;;;;;;;;5018420;28;20103;-57
2022/12/04 03:40:15;;;;;;;55.70;22.10;;;1.00;99.90;;;;;;5018122;28;20482;-59
2022/12/04 03:42:45;;;;;;;64.03;24.40;;;;;;;;;;5003644;28;20045;-58
2022/12/04 03:45:21;;;;;;;61.55;25.83;;;;;;;;;;4981186;28;20068;-58
2022/12/04 03:48:00;;;;;;;58.20;25.45;;;;;;;;;;5021472;28;20068;-58
2022/12/04 03:50:29;;;;;;;58.08;25.88;;;;;;;;;;5013461;28;20124;-58
2022/12/04 03:52:59;;;;;;;56.90;24.17;;;;;;;;;;5023002;28;20134;-58
2022/12/04 03:55:37;;;;;;;53.80;24.95;;;;;;;;;;5011238;28;20053;-58
2022/12/04 03:58:06;;;;;;;55.97;25.95;;;;;;;;;;5012256;28;20037;-57
2022/12/04 04:00:32;;;;;;;61.75;26.38;;;;;;;;;;5005071;28;20033;-57
2022/12/04 04:03:19;;;;;;;58.90;22.30;;;;;;;;;;5023755;28;20354;-59
2022/12/04 04:05:47;;;;;;;59.55;28.25;;;;;;;;;;5011452;28;20135;-58
2022/12/04 04:08:28;;;;;;;57.58;25.38;;;;;;;;;;5022328;28;20085;-57
2022/12/04 04:10:55;;;;;;;;;;;0.70;99.90;;;;;;5016223;28;20079;-57
2022/12/04 04:24:34;;;;;;;60.35;24.52;;;;;;;;;;5007436;28;20393;-58
2022/12/04 04:30:06;;;;;;;64.55;26.30;;;;;;;;;;5021499;22;20513;-59
2022/12/04 04:32:45;;;;;;;57.33;24.98;;;;;;;;;;5050198;28;20048;-58
2022/12/04 04:35:17;;;;;;;57.80;24.88;;;;;;;;;;5051677;28;20551;-58
2022/12/04 04:37:46;;;;;;;60.42;27.48;;;;;;;;;;5040223;28;20107;-57
2022/12/04 04:43:10;;;;;;;62.97;25.92;;;;;;;;;;5106680;22;20048;-58
2022/12/04 04:45:40;;;;;;;61.70;28.13;;;;;;;;;;5090566;28;20044;-57
2022/12/04 04:48:13;;;;;;;58.83;27.10;;;;;;;;;;5095399;28;20439;-57
2022/12/04 04:50:40;;;;;;;58.88;25.20;;;;;;;;;;5094483;28;20040;-61
2022/12/04 04:53:09;;;;;;;64.47;26.92;;;;;;;;;;5077668;28;20048;-57
2022/12/04 04:55:35;;;;;;;63.88;27.63;;;;;;;;;;5075931;28;20050;-58
2022/12/04 04:58:09;;;;;;;53.13;23.73;;;;;;;;;;5093921;28;20039;-57
2022/12/04 05:00:36;;;;;;;67.93;28.50;;;;;;;;;;5094391;28;20054;-58
2022/12/04 05:03:02;;;;;;;59.53;26.13;;;;;;;;;;5093777;28;20519;-58
2022/12/04 05:05:28;;;;;;;64.40;27.75;;;;;;;;;;5092609;28;20048;-57
2022/12/04 05:07:54;;;;;;;63.97;27.38;;;;;;;;;;5093947;28;20047;-57
2022/12/04 05:10:20;;;;;;;63.42;26.65;;;;;;;;;;5093114;28;20423;-58
2022/12/04 05:12:46;;;;;;;59.30;27.25;;;;;;;;;;5093605;28;20076;-58
2022/12/04 05:15:12;;;;;;;55.85;20.85;;;;;;;;;;5092909;28;20083;-57
2022/12/04 05:17:38;;;;;;;66.85;28.17;;;;;;;;;;5092109;28;20559;-57
2022/12/04 05:20:05;;;;;;;60.83;26.75;;;;;;;;;;5092812;28;20825;-57
2022/12/04 05:22:36;;;;;;;62.85;26.33;;;;;;;;;;5092206;28;20052;-57
2022/12/04 05:25:01;;;;;;;;;;;;;;;;;;5076089;28;20048;-57
2022/12/04 05:27:28;;;;;;;61.70;26.35;;;;;;;;;;5075559;28;19920;-57
2022/12/04 05:29:55;;;;;;;64.30;27.50;;;;;;;;;;5092735;28;20040;-58
2022/12/04 05:32:22;;;;;;;68.43;29.67;;;;;;;;;;5092188;28;20450;-60
2022/12/04 05:34:49;;;;;;;67.88;28.73;;;;;;;;;;5088313;28;20503;-57
2022/12/04 05:37:15;;;;;;;66.30;27.75;;;;;;;;;;5089234;28;20047;-59
2022/12/04 05:39:41;;;;;;;60.70;27.15;;;;;;;;;;5093594;28;20557;-58
2022/12/04 05:42:07;;;;;;;65.57;27.75;;;;;;;;;;5058099;28;20040;-58
2022/12/04 05:44:33;;;;;;;64.13;27.48;;;;;;;;;;5093140;28;20078;-58
2022/12/04 05:46:59;;;;;;;63.20;26.67;;;;;;;;;;5092074;28;20962;-58
2022/12/04 05:49:25;;;;;;;67.07;26.92;;;;;;;;;;5089042;28;20085;-58
2022/12/04 05:51:51;;;;;;;68.80;28.77;;;;;;;;;;5093136;28;20052;-57
2022/12/04 05:54:18;;;;;;;60.38;23.63;;;;;;;;;;5092655;28;20126;-58
2022/12/04 05:56:44;;;;;;;64.70;27.00;;;;;;;;;;5093185;28;20377;-59
2022/12/04 05:59:10;;;;;;;63.47;26.50;;;;;;;;;;5092995;28;20036;-58
2022/12/04 06:01:36;;;;;;;66.78;28.48;;;;;;;;;;5092623;28;20040;-58
2022/12/04 06:04:03;;;;;;;65.18;26.58;;;;;;;;;;5073454;28;20062;-58
2022/12/04 06:06:29;;;;;;;61.08;25.27;;;;;;;;;;5074165;28;20074;-58
2022/12/04 06:08:56;;;;;;;59.20;25.42;;;;;;;;;;5072966;28;20048;-58
2022/12/04 06:11:27;;;;;;;64.90;29.02;;;;;;;;;;5090112;28;20097;-58
2022/12/04 06:13:53;;;;;;;70.10;30.55;;;;;;;;;;5085557;28;20044;-59
2022/12/04 06:16:23;;;;;;;57.95;26.17;;;;;;;;;;5091767;28;20465;-58
2022/12/04 06:18:50;;;;;;;64.10;27.58;;;;;;;;;;5088069;28;20036;-59
2022/12/04 06:21:17;;;;;;;63.17;25.92;;;;;;;;;;5092276;28;20048;-58
2022/12/04 06:23:43;;;;;;;67.05;28.65;;;;;;;;;;5090008;28;20036;-58
2022/12/04 06:26:09;;;;;;;60.03;27.92;;;;;;;;;;5088092;28;20040;-58
2022/12/04 06:28:35;;;;;;;59.90;28.15;;;;;;;;;;5089519;28;20451;-58
2022/12/04 06:31:03;;;;;;;61.08;26.02;;;;;;;;;;5091663;28;20040;-58
2022/12/04 06:33:29;;;;;;;61.58;26.40;;;;;;;;;;5091406;28;20058;-58
2022/12/04 06:36:02;;;;;;;57.45;24.45;;;;;;;;;;5087182;28;20443;-58
2022/12/04 06:38:28;;;;;;;63.53;26.75;;;;;;;;;;5074554;28;20047;-58
2022/12/04 06:40:54;;;;;;;63.15;26.25;;;;;;;;;;5075574;28;20105;-58
2022/12/04 06:43:21;;;;;;;60.58;27.02;;;;;;;;;;5089632;28;20066;-61
2022/12/04 06:45:47;;;;;;;60.70;27.20;;;;;;;;;;5091832;28;20051;-58
2022/12/04 06:48:13;;;;;;;62.47;25.95;;;;;;;;;;5092270;28;20047;-59
2022/12/04 06:50:39;;;;;;;57.63;26.92;;;;;;;;;;5092859;28;20040;-61
2022/12/04 06:53:05;;;;;;;60.03;26.55;;;;;;;;;;5075134;28;20063;-59
2022/12/04 06:55:31;;;;;;;58.65;23.75;;;;;;;;;;5073331;28;20048;-58
2022/12/04 06:57:57;;;;;;;61.70;25.92;;;;;;;;;;5090410;28;20036;-58
2022/12/04 07:00:23;;;;;;;59.03;25.30;;;;;;;;;;5092131;28;20036;-58
2022/12/04 07:02:49;;;;;;;63.92;28.13;;;;;;;;;;5090066;28;20073;-58
2022/12/04 07:05:15;;;;;;;59.35;26.10;;;;;;;;;;5074115;28;20453;-58
2022/12/04 07:07:41;;;;;;;49.88;22.15;;;;;;;;;;5089952;28;20052;-58
2022/12/04 07:10:07;;;;;;;63.88;26.48;;;;;;;;;;5071863;28;20058;-58
2022/12/04 07:12:33;;;;;;;57.58;27.35;;;;;;;;;;5085930;28;20082;-58
2022/12/04 07:14:59;;;;;;;62.63;26.45;;;;;;;;;;5092001;28;20079;-58
2022/12/04 07:17:25;;;;;;;59.85;25.92;;;;;;;;;;5086693;28;20530;-58
2022/12/04 07:19:51;;;;;;;60.30;26.90;;;;;;;;;;5073512;28;20569;-58
2022/12/04 07:22:17;;;;;;;58.53;26.92;;;;;;;;;;5089699;28;20044;-58
2022/12/04 07:24:43;;;;;;;59.85;25.10;;;;;;;;;;5091434;28;20062;-58
2022/12/04 07:27:09;;;;;;;54.85;25.13;;;;;;;;;;5089237;28;20040;-58
2022/12/04 07:29:38;;;;;;;62.88;26.27;;;;;;;;;;5073752;28;20081;-58
2022/12/04 07:32:04;;;;;;;61.85;25.90;;;;;;;;;;5089761;28;20082;-58
2022/12/04 07:34:30;;;;;;;62.20;27.05;;;;;;;;;;5090447;28;20044;-58
2022/12/04 07:36:56;;;;;;;56.83;25.00;;;;;;;;;;5071548;28;20068;-58
2022/12/04 07:39:23;;;;;;;59.33;23.55;;;;;;;;;;5084015;28;20043;-58
2022/12/04 07:41:49;;;;;;;60.33;26.10;;;;;;;;;;5084888;28;20495;-58
2022/12/04 07:44:15;;;;;;;62.17;26.10;;;;;;;;;;5071516;28;20064;-58
2022/12/04 07:46:41;;;;;;;53.97;21.40;;;;;;;;;;5086223;28;20036;-58
2022/12/04 07:49:07;;;;;;;59.42;25.35;;;;;;;;;;5082690;28;20079;-58
2022/12/04 07:51:33;;;;;;;64.55;26.20;;;;;;;;;;5054545;28;20539;-59
2022/12/04 07:53:59;;;;;;;64.72;28.55;;;;;;;;;;5077130;28;20330;-58
2022/12/04 07:56:25;;;;;;;58.67;25.73;;;;;;;;;;5084257;28;20044;-58
2022/12/04 07:58:51;;;;;;;61.20;25.67;;;;;;;;;;5070129;28;20074;-58
2022/12/04 08:01:21;;;;;;;64.97;26.45;;;;;;;;;;5090285;28;20048;-58
2022/12/04 08:03:49;;;;;;;63.67;27.08;;;;;;;;;;5041800;28;20044;-58
2022/12/04 08:06:16;;;;;;;65.25;27.23;;;;;;;;;;5069173;28;20050;-58
2022/12/04 08:08:41;;;;;;;62.13;25.92;;;;;;;;;;5069807;28;20569;-58
2022/12/04 08:11:10;;;;;;;85.40;40.13;;;;;;;;;;5089143;28;20056;-58
2022/12/04 08:13:36;;;;;;;65.25;29.40;;;;;;;;;;5093161;28;20035;-57
2022/12/04 08:16:06;;;;;;;63.90;28.25;;;;;;;;;;5082391;28;20040;-58
2022/12/04 08:18:32;;;;;;;64.40;27.25;;;;;;;;;;5077731;28;20131;-58
2022/12/04 08:21:12;;;;;;;69.32;29.75;;;;;;;;;;5092536;28;20123;-58
2022/12/04 08:23:41;;;;;;;62.67;27.17;;;;;;;;;;5093024;28;20050;-58
2022/12/04 08:26:08;;;;;;;66.30;28.67;;;;;;;;;;5094588;28;20469;-58
2022/12/04 08:28:34;;;;;;;61.03;24.90;;;;;;;;;;5094659;28;20036;-58
2022/12/04 08:31:04;;;;;;;60.20;27.38;;;;;;;;;;5076142;28;20044;-57
2022/12/04 08:33:30;;;;;;;57.05;22.92;;;;;;;;;;5093639;28;20115;-58
2022/12/04 08:35:56;;;;;;;58.40;25.38;;;;;;;;;;5095178;28;20052;-58
2022/12/04 08:38:22;;;;;;;66.30;28.25;;;;;;;;;;5058712;28;20043;-59
2022/12/04 08:40:48;;;;;;;66.90;27.92;;;;;;;;;;5076360;28;20044;-57
2022/12/04 08:43:14;;;;;;;60.40;25.10;;;;;;;;;;5093761;28;20058;-58
2022/12/04 08:45:40;;;;;;;63.53;26.83;;;;;;;;;;5093224;28;20101;-58
2022/12/04 08:48:06;;;;;;;61.05;27.85;;;;;;;;;;5070598;28;20093;-59
2022/12/04 08:50:32;;;;;;;62.38;26.73;;;;;;;;;;5094996;28;20128;-59
2022/12/04 08:52:58;;;;;;;70.70;31.50;;;;;;;;;;5082177;28;20568;-58
2022/12/04 08:55:24;;;;;;;62.08;27.52;;;;;;;;;;5092290;28;20044;-58
2022/12/04 08:57:51;;;;;;;73.88;32.42;;;;;;;;;;5089971;28;20401;-58
2022/12/04 09:00:18;;;;;;;67.85;29.20;;;;;;;;;;5073126;28;20052;-58
2022/12/04 09:02:44;;;;;;;61.33;25.75;;;;;;;;;;5093249;28;20518;-58
2022/12/04 09:05:10;;;;;;;70.43;30.70;;;;;;;;;;5094438;28;20119;-58
2022/12/04 09:07:36;;;;;;;64.65;27.55;;;;;;;;;;5092712;28;20193;-58
2022/12/04 09:10:02;;;;;;;70.95;31.77;;;;;;;;;;5093410;28;20109;-59
2022/12/04 09:12:28;;;;;;;70.30;30.50;;;;;;;;;;5094886;28;20052;-58
2022/12/04 09:14:54;;;;;;;61.47;24.67;;;;;;;;;;5094080;28;20399;-58
2022/12/04 09:17:20;;;;;;;68.75;32.78;;;;;;;;;;5093645;28;20044;-58
2022/12/04 09:19:46;;;;;;;74.03;29.95;;;;;;;;;;5091090;28;20051;-58
2022/12/04 09:22:12;;;;;;;79.00;33.20;;;;;;;;;;5093894;28;20496;-58
2022/12/04 09:24:38;;;;;;;71.50;32.10;;;;;;;;;;5092740;28;20068;-59
2022/12/04 09:27:04;;;;;;;109.53;51.15;;;;;;;;;;5092613;28;20036;-58
2022/12/04 09:29:30;;;;;;;84.25;39.45;;;;;;;;;;5093477;28;20044;-57
2022/12/04 09:31:56;;;;;;;65.95;29.33;;;;;;;;;;5091099;28;20040;-58
2022/12/04 09:34:22;;;;;;;64.78;27.65;;;;;;;;;;5087157;28;20051;-59
2022/12/04 09:36:49;;;;;;;71.93;29.33;;;;;;;;;;5093687;28;20044;-58
2022/12/04 09:39:15;;;;;;;101.38;38.42;;;;;;;;;;5092779;28;20051;-58
2022/12/04 09:41:58;;;;;;;64.93;27.65;;;;;;;;;;5091982;28;20051;-58
2022/12/04 09:44:27;;;;;;;64.35;27.98;;;;;;;;;;5092783;28;20055;-58
2022/12/04 09:47:04;;;;;;;69.68;29.38;;;;;;;;;;5093874;28;20058;-58
2022/12/04 09:49:35;;;;;;;58.55;23.90;;;;;;;;;;5076083;28;20123;-57
2022/12/04 09:52:02;;;;;;;67.00;26.23;;;;;;;;;;5084132;28;20110;-58
2022/12/04 09:54:31;;;;;;;69.95;29.10;;;;;;;;;;5073065;28;20131;-58
2022/12/04 09:57:03;;;;;;;71.32;27.83;;;;;;;;;;5092986;28;20070;-58
2022/12/04 09:59:31;;;;;;;68.05;27.92;;;;;;;;;;5075086;28;20554;-59
2022/12/04 10:02:03;;;;;;;81.45;31.25;;;;;;;;;;5085710;28;20094;-58
2022/12/04 10:04:29;;;;;;;67.28;26.70;;;;;;;;;;5065491;28;20056;-58
2022/12/04 10:07:10;;;;;;;68.53;28.95;;;;;;;;;;5055147;28;20106;-58
2022/12/04 10:09:36;;;;;;;65.35;28.27;;;;;;;;;;5073271;28;20052;-59
2022/12/04 10:12:12;;;;;;;71.00;27.95;;;;;;;;;;5073222;28;20440;-58
2022/12/04 10:14:44;;;;;;;70.25;29.40;;;;;;;;;;5077741;28;20131;-58
2022/12/04 10:17:10;;;;;;;71.53;31.30;;;;;;;;;;5083754;28;20040;-58
2022/12/04 10:20:06;;;;;;;69.43;32.00;;;1.30;99.90;;;;;;5058675;28;20047;-58
2022/12/04 10:22:47;;;;;;;66.78;27.02;;;;;;;;;;5092997;28;20051;-58
2022/12/04 10:25:21;;;;;;;68.10;28.95;;;;;;;;;;5090334;28;20488;-58
2022/12/04 10:27:47;;;;;;;59.97;26.50;;;;;;;;;;5089306;28;20055;-58
2022/12/04 10:30:16;;;;;;;62.38;27.92;;;;;;;;;;5091307;28;20044;-58
2022/12/04 10:32:44;;;;;;;61.45;25.48;;;;;;;;;;5090933;28;20046;-58
2022/12/04 10:35:28;;;;;;;66.22;27.70;;;;;;;;;;5073546;28;20422;-58
2022/12/04 10:38:05;;;;;;;59.70;26.63;;;;;;;;;;5072652;28;21683;-58
2022/12/04 10:40:35;;;;;;;61.30;25.40;;;;;;;;;;5082786;28;20478;-58
2022/12/04 10:43:30;;;;;;;61.10;25.65;;;1.50;99.90;;;;;;5091510;28;20060;-59
2022/12/04 10:45:57;;;;;;;60.25;26.00;;;;;;;;;;5081018;28;20058;-58
2022/12/04 10:48:25;;;;;;;67.43;30.00;;;;;;;;;;5092426;28;20040;-59
2022/12/04 10:50:51;;;;;;;57.60;26.00;;;;;;;;;;5092137;28;20127;-58
2022/12/04 10:53:21;;;;;;;44.40;18.48;;;;;;;;;;5082847;28;20047;-58
2022/12/04 10:55:47;;;;;;;64.50;30.65;;;;;;;;;;5089779;28;20063;-58
2022/12/04 10:58:19;;;;;;;60.75;27.85;;;;;;;;;;5084764;28;20036;-58
2022/12/04 11:01:01;;;;;;;62.58;26.65;;;;;;;;;;5055663;28;20127;-58
2022/12/04 11:03:28;;;;;;;55.65;24.98;;;;;;;;;;5083404;28;20400;-58
2022/12/04 11:06:02;;;;;;;52.03;22.60;;;;;;;;;;5091037;28;20056;-58
2022/12/04 11:08:48;;;;;;;43.60;18.67;;;;;;;;;;5073356;28;20040;-58
2022/12/04 11:11:15;;;;;;;53.78;24.52;;;;;;;;;;5090565;28;20149;-59
2022/12/04 11:13:41;;;;;;;49.70;22.15;;;;;;;;;;5090945;28;20036;-59
2022/12/04 11:16:27;;;;;;;48.15;23.23;;;;;;;;;;5090924;28;20052;-58
2022/12/04 11:18:53;;;;;;;46.58;23.08;;;;;;;;;;5071092;28;20044;-56
2022/12/04 11:21:23;;;;;;;50.13;26.05;;;;;;;;;;5071699;28;20403;-57
2022/12/04 11:23:50;;;;;;;37.45;16.35;;;;;;;;;;5073250;28;20043;-58
2022/12/04 11:26:18;;;;;;;58.28;29.23;;;;;;;;;;5073020;28;20052;-57
2022/12/04 11:28:46;;;;;;;56.22;27.63;;;;;;;;;;5091079;28;20517;-57
2022/12/04 11:31:17;;;;;;;49.67;22.20;;;;;;;;;;5055483;28;20117;-57
2022/12/04 11:34:00;;;;;;;46.33;20.85;;;;;;;;;;5102039;22;20049;-58
2022/12/04 11:36:26;;;;;;;52.65;25.80;;;;;;;;;;5068149;22;20056;-57
2022/12/04 11:38:53;;;;;;;63.00;30.52;;;;;;;;;;5089722;28;20393;-57
2022/12/04 11:41:24;;;;;;;54.03;25.00;;;;;;;;;;5091867;28;20051;-57
2022/12/04 11:43:50;;;;;;;44.38;21.15;;;;;;;;;;5073411;28;20048;-57
2022/12/04 11:46:21;;;;;;;48.60;22.83;;;;;;;;;;5092007;28;20052;-57
2022/12/04 11:48:47;;;;;;;64.57;31.70;;;;;;;;;;5090340;28;20516;-57
2022/12/04 11:51:23;;;;;;;50.85;23.73;;;;;;;;;;5088829;28;20040;-58
2022/12/04 11:53:54;;;;;;;53.25;24.38;;;;;;;;;;5081155;28;20040;-57
2022/12/04 11:56:29;;;;;;;70.07;33.22;;;;;;;;;;5092136;28;20118;-57
2022/12/04 11:59:07;;;;;;;42.60;20.42;;;;;;;;;;5091129;28;20044;-57
2022/12/04 12:01:46;;;;;;;77.13;31.70;;;;;;;;;;5089415;28;20397;-57
2022/12/04 12:04:36;;;;;;;55.95;26.60;;;2.30;99.90;;;;;;5072310;28;20479;-58
2022/12/04 12:07:16;;;;;;;37.47;16.60;;;;;;;;;;5082428;28;20115;-58
2022/12/04 12:09:42;;;;;;;39.67;19.38;;;;;;;;;;5072823;28;20048;-58
2022/12/04 12:12:08;;;;;;;40.17;19.33;;;;;;;;;;5073086;28;20553;-58
2022/12/04 12:14:48;;;;;;;44.75;19.17;;;;;;;;;;5091669;28;20048;-58
2022/12/04 12:17:31;;;;;;;34.05;16.77;;;;;;;;;;5060683;28;20047;-58
2022/12/04 12:20:02;;;;;;;47.28;23.58;;;;;;;;;;5066689;28;20052;-57
2022/12/04 12:22:43;;;;;;;34.55;17.10;;;;;;;;;;5078980;28;20052;-58
2022/12/04 12:25:09;;;;;;;;;;;;;;;;;;5082948;28;20430;-57
2022/12/04 12:28:01;;;;;;;46.13;23.30;;;;;;;;;;5070986;28;19928;-58
2022/12/04 12:30:31;;;;;;;33.40;17.08;;;;;;;;;;5066677;28;20051;-58
2022/12/04 12:33:09;;;;;;;31.33;16.67;;;;;;;;;;5079348;28;20062;-57
2022/12/04 12:35:38;;;;;;;25.98;13.43;;;;;;;;;;5086865;28;20056;-57
2022/12/04 12:38:19;;;;;;;26.75;15.38;;;;;;;;;;5080268;28;20126;-58
2022/12/04 12:40:48;;;;;;;22.85;12.10;;;;;;;;;;5089742;28;20778;-58
2022/12/04 12:43:23;;;;;;;25.63;12.15;;;;;;;;;;5057379;28;20512;-57
2022/12/04 12:45:55;;;;;;;27.77;13.63;;;;;;;;;;5061081;28;20051;-57
2022/12/04 12:48:33;;;;;;;27.98;14.50;;;;;;;;;;5066630;28;20044;-57
2022/12/04 12:51:27;;;;;;;50.22;29.00;;;2.80;99.90;;;;;;5088892;28;20066;-58
2022/12/04 12:53:55;;;;;;;27.67;13.38;;;;;;;;;;5081616;28;20051;-57
2022/12/04 12:56:30;;;;;;;28.70;13.60;;;;;;;;;;5090531;28;20136;-58
2022/12/04 12:58:58;;;;;;;28.08;13.80;;;;;;;;;;5090502;28;20048;-57
2022/12/04 13:01:37;;;;;;;30.60;15.50;;;;;;;;;;5057856;28;20044;-58
2022/12/04 13:04:18;;;;;;;31.27;14.63;;;;;;;;;;5076627;28;20126;-58
2022/12/04 13:06:44;;;;;;;22.98;11.27;;;;;;;;;;5094337;28;20116;-58
2022/12/04 13:09:24;;;;;;;34.78;15.02;;;;;;;;;;5076017;28;20048;-58
2022/12/04 13:11:51;;;;;;;27.83;13.32;;;;;;;;;;5091313;28;20043;-58
2022/12/04 13:14:17;;;;;;;31.50;15.75;;;;;;;;;;5093471;28;20055;-58
2022/12/04 13:16:46;;;;;;;28.60;14.88;;;;;;;;;;5093369;28;20500;-57
2022/12/04 13:19:24;;;;;;;26.55;12.85;;;;;;;;;;5071527;28;20054;-58
2022/12/04 13:21:58;;;;;;;28.83;13.00;;;;;;;;;;5090395;28;20044;-58
2022/12/04 13:24:42;;;;;;;28.20;13.25;;;2.50;99.90;;;;;;5094297;28;20059;-58
2022/12/04 13:27:26;;;;;;;34.90;15.75;;;;;;;;;;5093028;28;20044;-58
2022/12/04 13:29:52;;;;;;;34.53;17.10;;;;;;;;;;5091430;28;20093;-57
2022/12/04 13:32:33;;;;;;;32.92;16.05;;;;;;;;;;5094387;28;20131;-58
2022/12/04 13:35:14;;;;;;;31.13;15.00;;;;;;;;;;5093604;28;20064;-57
2022/12/04 13:37:52;;;;;;;35.30;15.98;;;;;;;;;;5091810;28;20504;-60
2022/12/04 13:40:32;;;;;;;31.48;15.43;;;;;;;;;;5067913;28;20542;-58
2022/12/04 13:43:19;;;;;;;27.90;14.40;;;;;;;;;;5092117;28;20050;-58
2022/12/04 13:45:46;;;;;;;28.23;14.50;;;;;;;;;;5092626;28;20048;-59
2022/12/04 13:48:12;;;;;;;31.08;14.18;;;;;;;;;;5073521;28;20055;-59
2022/12/04 13:50:39;;;;;;;31.73;15.55;;;;;;;;;;5075114;28;20087;-58
2022/12/04 13:53:06;;;;;;;29.48;13.63;;;;;;;;;;5076363;28;20094;-58
2022/12/04 13:55:37;;;;;;;30.17;13.32;;;;;;;;;;5093964;28;20049;-58
2022/12/04 13:58:24;;;;;;;29.52;14.20;;;;;;;;;;5070429;28;20048;-58
2022/12/04 14:00:59;;;;;;;33.42;16.75;;;;;;;;;;5057544;28;20576;-58
2022/12/04 14:03:28;;;;;;;28.05;15.05;;;;;;;;;;5081467;28;20087;-58
2022/12/04 14:05:54;;;;;;;44.03;21.52;;;;;;;;;;5091928;28;20036;-58
2022/12/04 14:08:24;;;;;;;27.60;13.70;;;;;;;;;;5092027;28;20063;-58
2022/12/04 14:11:08;;;;;;;44.72;24.33;;;;;;;;;;5091937;28;20040;-58
2022/12/04 14:13:44;;;;;;;30.58;14.73;;;;;;;;;;5079075;28;20131;-58
2022/12/04 14:16:29;;;;;;;27.73;14.30;;;;;;;;;;5083848;28;20044;-58
2022/12/04 14:18:57;;;;;;;27.17;12.18;;;;;;;;;;5077528;28;20032;-58
2022/12/04 14:21:23;;;;;;;54.80;32.67;;;;;;;;;;5090115;28;20048;-58
2022/12/04 14:23:50;;;;;;;28.58;14.82;;;;;;;;;;5075200;28;20548;-58
2022/12/04 14:26:34;;;;;;;26.98;12.82;;;;;;;;;;5093136;28;20050;-58
2022/12/04 14:29:17;;;;;;;28.85;13.40;;;;;;;;;;5090031;28;20033;-59
2022/12/04 14:31:43;;;;;;;31.13;14.48;;;;;;;;;;5068711;28;20070;-59
2022/12/04 14:34:28;;;;;;;25.83;12.80;;;;;;;;;;5088810;28;20079;-60
2022/12/04 14:36:55;;;;;;;24.27;12.63;;;;;;;;;;5086781;28;20052;-59
2022/12/04 14:39:33;;;;;;;44.33;23.08;;;;;;;;;;5074163;28;20044;-58
2022/12/04 14:42:26;;;;;;;32.72;16.38;;;2.90;99.90;;;;;;5091562;28;20040;-58
2022/12/04 14:44:54;;;;;;;30.98;15.43;;;;;;;;;;5083470;28;20052;-58
2022/12/04 14:47:39;;;;;;;30.20;14.70;;;;;;;;;;5092359;28;20390;-58
2022/12/04 14:50:36;;;;;;;35.10;17.02;;;2.70;99.90;;;;;;5081972;28;20048;-57